New Joy — D7RB — position and weather

sailwx.info

Track history (hours):
 
Tides and Currents Weather Stations Pressure Air Temp Water Temp Dewpoint Dewpoint Depression Visibility Wind Speed Wind Dir Waves Ship Positions

New Joy

Last reported at 2018-Mar-06 08:56 UTC. Time now 2018-Jun-19 01:25 UTC.
Position S 32°33' E 152°47'.
Warning: this ship's position is months out of date.

Length 269 m; draft 15.3 m.

Type: Cargo ship. MMSI: 440814000.

Date/timePositionNaut miles runAvg speedWind from/ knotsBaromVisibWave heightAir tempDewpointWater temp
2018-Mar-06 08:56S 32°33' E 152°47'511.1
2018-Mar-06 08:30S 32°37' E 152°44'510.9
2018-Mar-06 08:00S 32°41' E 152°40'611.0
2018-Mar-06 07:29S 32°46' E 152°36'510.5
2018-Mar-06 07:00S 32°49' E 152°31'510.7
2018-Mar-06 06:30S 32°51' E 152°25'510.6
2018-Mar-06 06:00S 32°53' E 152°19'510.5
2018-Mar-06 05:30S 32°55' E 152°13'510.0
2018-Mar-06 05:00S 32°57' E 152°08'510.0
2018-Mar-06 04:30S 32°59' E 152°03'510.0
2018-Mar-06 04:00S 33°01' E 151°57'4 7.9
2018-Mar-06 03:30S 33°01' E 151°53'5 9.5
2018-Mar-06 03:00S 32°57' E 151°50'3 6.2
2018-Mar-06 02:30S 32°55' E 151°47'2 3.0
2018-Mar-06 02:00S 32°54' E 151°46'1 1.3
2018-Mar-06 01:27S 32°53' E 151°46'0 0.0
2018-Mar-06 01:00S 32°53' E 151°46'0 0.0
2018-Mar-05 23:48S 32°53' E 151°46'0 0.0
2018-Mar-05 23:30S 32°53' E 151°46'0 0.0
2018-Mar-05 23:00S 32°53' E 151°46'0 0.0
2018-Mar-05 22:30S 32°53' E 151°46'0 0.0
2018-Mar-05 22:00S 32°53' E 151°46'0 0.0
2018-Mar-05 21:00S 32°53' E 151°46'0 0.0
2018-Mar-05 20:27S 32°53' E 151°46'0 0.0
2018-Mar-05 19:57S 32°53' E 151°46'0 0.0
2018-Mar-05 19:24S 32°53' E 151°46'0 0.0
2018-Mar-05 19:00S 32°53' E 151°46'0 0.0
2018-Mar-05 18:27S 32°53' E 151°46'0 0.0
2018-Mar-05 17:54S 32°53' E 151°46'0 0.0
2018-Mar-05 17:30S 32°53' E 151°46'0 0.0
2018-Mar-05 17:00S 32°53' E 151°46'0 0.0
2018-Mar-05 16:27S 32°53' E 151°46'0 0.0
2018-Mar-05 15:48S 32°53' E 151°46'0 0.0
2018-Mar-05 15:21S 32°53' E 151°46'0 0.0
2018-Mar-05 14:57S 32°53' E 151°46'0 0.0
2018-Mar-05 14:21S 32°53' E 151°46'0 0.0
2018-Mar-05 14:00S 32°53' E 151°46'0 0.0
2018-Mar-05 13:30S 32°53' E 151°46'0 0.0
2018-Mar-05 13:00S 32°53' E 151°46'0 0.0
2018-Mar-05 12:27S 32°53' E 151°46'0 0.0
2018-Mar-05 11:57S 32°53' E 151°46'0 0.0
2018-Mar-05 11:03S 32°53' E 151°46'0 0.0
2018-Mar-05 10:39S 32°53' E 151°46'0 0.0
2018-Mar-05 10:27S 32°53' E 151°46'0 0.0
2018-Mar-05 10:00S 32°53' E 151°46'0 0.0
2018-Mar-05 09:30S 32°53' E 151°46'0 0.0
2018-Mar-05 09:00S 32°53' E 151°46'0 0.0
2018-Mar-05 08:30S 32°53' E 151°46'0 0.0
2018-Mar-05 07:57S 32°53' E 151°46'0 0.0
2018-Mar-05 07:30S 32°53' E 151°46'0 0.0
2018-Mar-05 07:00S 32°53' E 151°46'0 0.0
2018-Mar-05 06:27S 32°53' E 151°46'0 0.0
2018-Mar-05 05:57S 32°53' E 151°46'0 0.0
2018-Mar-05 05:30S 32°53' E 151°46'0 0.0
2018-Mar-05 05:00S 32°53' E 151°46'0 0.0
2018-Mar-05 04:30S 32°53' E 151°46'0 0.0
2018-Mar-05 04:00S 32°53' E 151°46'0 0.0
2018-Mar-05 03:30S 32°53' E 151°46'0 0.0
2018-Mar-05 03:00S 32°53' E 151°46'0 0.0
2018-Mar-05 02:30S 32°53' E 151°46'0 0.0
2018-Mar-05 02:00S 32°53' E 151°46'0 0.0
2018-Mar-05 01:30S 32°53' E 151°46'0 0.0
2018-Mar-05 01:00S 32°53' E 151°46'0 0.6
2018-Mar-05 00:30S 32°54' E 151°46'2 3.6
2018-Mar-05 00:01S 32°55' E 151°47'4 8.7
2018-Mar-04 23:30S 32°56' E 151°52'5 9.1
2018-Mar-04 23:00S 33°00' E 151°55'3 6.5
2018-Mar-04 22:30S 33°01' E 151°58'611.9
2018-Mar-04 22:00S 33°01' E 152°05'612.9
2018-Mar-04 21:30S 32°60' E 152°13'612.4
2018-Mar-04 21:00S 32°59' E 152°20'612.2
2018-Mar-04 20:30S 32°59' E 152°28'0 0.6
2018-Mar-04 19:57S 32°58' E 152°28'1 1.7
2018-Mar-04 19:24S 32°59' E 152°27'1 1.7
2018-Mar-04 19:00S 32°60' E 152°27'1 1.8
2018-Mar-04 18:30S 33°00' E 152°26'1 2.0
2018-Mar-04 18:00S 33°01' E 152°25'1 2.1
2018-Mar-04 17:30S 33°01' E 152°24'1 2.1
2018-Mar-04 17:00S 33°02' E 152°23'1 2.2
2018-Mar-04 16:30S 33°03' E 152°22'1 2.2
2018-Mar-04 16:00S 33°03' E 152°21'1 2.1
2018-Mar-04 15:30S 33°03' E 152°20'1 1.9
2018-Mar-04 15:00S 33°04' E 152°19'1 1.8
2018-Mar-04 14:30S 33°04' E 152°18'1 1.8
2018-Mar-04 14:00S 33°04' E 152°17'1 1.8
2018-Mar-04 13:30S 33°05' E 152°15'1 1.7
2018-Mar-04 13:00S 33°05' E 152°14'1 1.6
2018-Mar-04 12:30S 33°05' E 152°13'1 1.6
2018-Mar-04 12:00S 33°05' E 152°13'1 1.6
2018-Mar-04 11:30S 33°05' E 152°12'1 1.6
2018-Mar-04 11:00S 33°05' E 152°11'1 1.5
2018-Mar-04 10:30S 33°05' E 152°10'1 1.3
2018-Mar-04 09:57S 33°05' E 152°09'1 1.2
2018-Mar-04 09:30S 33°05' E 152°08'3 6.1
2018-Mar-04 09:00S 33°03' E 152°11'612.8
2018-Mar-04 08:30S 32°58' E 152°16'5 9.7
2018-Mar-04 08:00S 32°55' E 152°20'0 0.4
2018-Mar-04 07:30S 32°55' E 152°20'0 0.6
2018-Mar-04 07:00S 32°55' E 152°21'0 0.5
2018-Mar-04 06:30S 32°55' E 152°21'0 0.4
2018-Mar-04 06:00S 32°55' E 152°21'1 1.4
2018-Mar-04 05:30S 32°55' E 152°22'2 4.4
2018-Mar-04 05:00S 32°56' E 152°24'711.9
2018-Mar-04 04:27S 32°58' E 152°32'16 1.6
2018-Mar-03 18:18S 33°03' E 152°50'1 2.4
2018-Mar-03 18:00S 33°03' E 152°49'1 2.4
2018-Mar-03 17:30S 33°03' E 152°48'2 2.3
2018-Mar-03 16:39S 33°02' E 152°45'1 2.5
2018-Mar-03 16:27S 33°02' E 152°45'1 2.4
2018-Mar-03 16:00S 33°02' E 152°43'1 2.1
2018-Mar-03 15:30S 33°02' E 152°42'1 1.7
2018-Mar-03 14:54S 33°02' E 152°41'1 2.0
2018-Mar-03 14:30S 33°02' E 152°40'1 2.1
2018-Mar-03 13:57S 33°01' E 152°39'2 2.1
2018-Mar-03 12:51S 33°00' E 152°36'1 2.0
2018-Mar-03 12:18S 33°00' E 152°35'1 1.9
2018-Mar-03 12:00S 32°60' E 152°34'1 1.9
2018-Mar-03 11:30S 32°59' E 152°33'1 1.8
2018-Mar-03 11:00S 32°59' E 152°33'1 1.8
2018-Mar-03 10:30S 32°58' E 152°32'1 1.7
2018-Mar-03 10:00S 32°58' E 152°31'1 1.6
2018-Mar-03 09:30S 32°57' E 152°30'1 1.4
2018-Mar-03 09:00S 32°57' E 152°29'1 1.4
2018-Mar-03 08:30S 32°57' E 152°29'1 1.3
2018-Mar-03 08:00S 32°56' E 152°28'1 1.3
2018-Mar-03 07:27S 32°55' E 152°28'1 1.1
2018-Mar-03 07:00S 32°55' E 152°27'1 1.3
2018-Mar-03 06:30S 32°54' E 152°27'1 1.1
2018-Mar-03 06:00S 32°54' E 152°27'0 0.9
2018-Mar-03 05:30S 32°53' E 152°27'0 0.8
2018-Mar-03 04:57S 32°53' E 152°27'0 0.4
2018-Mar-03 04:24S 32°53' E 152°27'0 0.4
2018-Mar-03 04:00S 32°53' E 152°27'0 0.2
2018-Mar-03 03:30S 32°53' E 152°27'1 1.3
2018-Mar-03 03:00S 32°52' E 152°27'5 9.4
2018-Mar-03 02:30S 32°53' E 152°21'611.5
2018-Mar-03 02:00S 32°55' E 152°15'611.3
2018-Mar-03 01:30S 32°57' E 152°08'611.0
2018-Mar-03 01:00S 32°59' E 152°02'2 3.4
2018-Mar-03 00:31S 32°58' E 152°00'612.8
2018-Mar-03 00:00S 32°57' E 152°08'612.3
2018-Mar-02 23:29S 32°56' E 152°15'612.1
2018-Mar-02 23:00S 32°54' E 152°22'611.9
2018-Mar-02 22:31S 32°51' E 152°28'611.5
2018-Mar-02 21:57S 32°49' E 152°35'511.4
2018-Mar-02 21:30S 32°47' E 152°40'510.5
2018-Mar-02 20:59S 32°43' E 152°45'611.7
2018-Mar-02 20:29S 32°38' E 152°49'  
Track history (hours):
 
Tides and Currents Weather Stations Pressure Air Temp Water Temp Dewpoint Dewpoint Depression Visibility Wind Speed Wind Dir Waves Ship Positions

New Joy

Last reported at 2018-Mar-06 08:56 UTC. Time now 2018-Jun-19 01:25 UTC.
Position S 32°33' E 152°47'.
Warning: this ship's position is months out of date.

Length 269 m; draft 15.3 m.

Type: Cargo ship. MMSI: 440814000.

Date/timePositionNaut miles runAvg speedWind from/ knotsBaromVisibWave heightAir tempDewpointWater temp
2018-Mar-06 08:56S 32°33' E 152°47'511.1
2018-Mar-06 08:30S 32°37' E 152°44'510.9
2018-Mar-06 08:00S 32°41' E 152°40'611.0
2018-Mar-06 07:29S 32°46' E 152°36'510.5
2018-Mar-06 07:00S 32°49' E 152°31'510.7
2018-Mar-06 06:30S 32°51' E 152°25'510.6
2018-Mar-06 06:00S 32°53' E 152°19'510.5
2018-Mar-06 05:30S 32°55' E 152°13'510.0
2018-Mar-06 05:00S 32°57' E 152°08'510.0
2018-Mar-06 04:30S 32°59' E 152°03'510.0
2018-Mar-06 04:00S 33°01' E 151°57'4 7.9
2018-Mar-06 03:30S 33°01' E 151°53'5 9.5
2018-Mar-06 03:00S 32°57' E 151°50'3 6.2
2018-Mar-06 02:30S 32°55' E 151°47'2 3.0
2018-Mar-06 02:00S 32°54' E 151°46'1 1.3
2018-Mar-06 01:27S 32°53' E 151°46'0 0.0
2018-Mar-06 01:00S 32°53' E 151°46'0 0.0
2018-Mar-05 23:48S 32°53' E 151°46'0 0.0
2018-Mar-05 23:30S 32°53' E 151°46'0 0.0
2018-Mar-05 23:00S 32°53' E 151°46'0 0.0
2018-Mar-05 22:30S 32°53' E 151°46'0 0.0
2018-Mar-05 22:00S 32°53' E 151°46'0 0.0
2018-Mar-05 21:00S 32°53' E 151°46'0 0.0
2018-Mar-05 20:27S 32°53' E 151°46'0 0.0
2018-Mar-05 19:57S 32°53' E 151°46'0 0.0
2018-Mar-05 19:24S 32°53' E 151°46'0 0.0
2018-Mar-05 19:00S 32°53' E 151°46'0 0.0
2018-Mar-05 18:27S 32°53' E 151°46'0 0.0
2018-Mar-05 17:54S 32°53' E 151°46'0 0.0
2018-Mar-05 17:30S 32°53' E 151°46'0 0.0
2018-Mar-05 17:00S 32°53' E 151°46'0 0.0
2018-Mar-05 16:27S 32°53' E 151°46'0 0.0
2018-Mar-05 15:48S 32°53' E 151°46'0 0.0
2018-Mar-05 15:21S 32°53' E 151°46'0 0.0
2018-Mar-05 14:57S 32°53' E 151°46'0 0.0
2018-Mar-05 14:21S 32°53' E 151°46'0 0.0
2018-Mar-05 14:00S 32°53' E 151°46'0 0.0
2018-Mar-05 13:30S 32°53' E 151°46'0 0.0
2018-Mar-05 13:00S 32°53' E 151°46'0 0.0
2018-Mar-05 12:27S 32°53' E 151°46'0 0.0
2018-Mar-05 11:57S 32°53' E 151°46'0 0.0
2018-Mar-05 11:03S 32°53' E 151°46'0 0.0
2018-Mar-05 10:39S 32°53' E 151°46'0 0.0
2018-Mar-05 10:27S 32°53' E 151°46'0 0.0
2018-Mar-05 10:00S 32°53' E 151°46'0 0.0
2018-Mar-05 09:30S 32°53' E 151°46'0 0.0
2018-Mar-05 09:00S 32°53' E 151°46'0 0.0
2018-Mar-05 08:30S 32°53' E 151°46'0 0.0
2018-Mar-05 07:57S 32°53' E 151°46'0 0.0
2018-Mar-05 07:30S 32°53' E 151°46'0 0.0
2018-Mar-05 07:00S 32°53' E 151°46'0 0.0
2018-Mar-05 06:27S 32°53' E 151°46'0 0.0
2018-Mar-05 05:57S 32°53' E 151°46'0 0.0
2018-Mar-05 05:30S 32°53' E 151°46'0 0.0
2018-Mar-05 05:00S 32°53' E 151°46'0 0.0
2018-Mar-05 04:30S 32°53' E 151°46'0 0.0
2018-Mar-05 04:00S 32°53' E 151°46'0 0.0
2018-Mar-05 03:30S 32°53' E 151°46'0 0.0
2018-Mar-05 03:00S 32°53' E 151°46'0 0.0
2018-Mar-05 02:30S 32°53' E 151°46'0 0.0
2018-Mar-05 02:00S 32°53' E 151°46'0 0.0
2018-Mar-05 01:30S 32°53' E 151°46'0 0.0
2018-Mar-05 01:00S 32°53' E 151°46'0 0.6
2018-Mar-05 00:30S 32°54' E 151°46'2 3.6
2018-Mar-05 00:01S 32°55' E 151°47'4 8.7
2018-Mar-04 23:30S 32°56' E 151°52'5 9.1
2018-Mar-04 23:00S 33°00' E 151°55'3 6.5
2018-Mar-04 22:30S 33°01' E 151°58'611.9
2018-Mar-04 22:00S 33°01' E 152°05'612.9
2018-Mar-04 21:30S 32°60' E 152°13'612.4
2018-Mar-04 21:00S 32°59' E 152°20'612.2
2018-Mar-04 20:30S 32°59' E 152°28'0 0.6
2018-Mar-04 19:57S 32°58' E 152°28'1 1.7
2018-Mar-04 19:24S 32°59' E 152°27'1 1.7
2018-Mar-04 19:00S 32°60' E 152°27'1 1.8
2018-Mar-04 18:30S 33°00' E 152°26'1 2.0
2018-Mar-04 18:00S 33°01' E 152°25'1 2.1
2018-Mar-04 17:30S 33°01' E 152°24'1 2.1
2018-Mar-04 17:00S 33°02' E 152°23'1 2.2
2018-Mar-04 16:30S 33°03' E 152°22'1 2.2
2018-Mar-04 16:00S 33°03' E 152°21'1 2.1
2018-Mar-04 15:30S 33°03' E 152°20'1 1.9
2018-Mar-04 15:00S 33°04' E 152°19'1 1.8
2018-Mar-04 14:30S 33°04' E 152°18'1 1.8
2018-Mar-04 14:00S 33°04' E 152°17'1 1.8
2018-Mar-04 13:30S 33°05' E 152°15'1 1.7
2018-Mar-04 13:00S 33°05' E 152°14'1 1.6
2018-Mar-04 12:30S 33°05' E 152°13'1 1.6
2018-Mar-04 12:00S 33°05' E 152°13'1 1.6
2018-Mar-04 11:30S 33°05' E 152°12'1 1.6
2018-Mar-04 11:00S 33°05' E 152°11'1 1.5
2018-Mar-04 10:30S 33°05' E 152°10'1 1.3
2018-Mar-04 09:57S 33°05' E 152°09'1 1.2
2018-Mar-04 09:30S 33°05' E 152°08'3 6.1
2018-Mar-04 09:00S 33°03' E 152°11'612.8
2018-Mar-04 08:30S 32°58' E 152°16'5 9.7
2018-Mar-04 08:00S 32°55' E 152°20'0 0.4
2018-Mar-04 07:30S 32°55' E 152°20'0 0.6
2018-Mar-04 07:00S 32°55' E 152°21'0 0.5
2018-Mar-04 06:30S 32°55' E 152°21'0 0.4
2018-Mar-04 06:00S 32°55' E 152°21'1 1.4
2018-Mar-04 05:30S 32°55' E 152°22'2 4.4
2018-Mar-04 05:00S 32°56' E 152°24'711.9
2018-Mar-04 04:27S 32°58' E 152°32'16 1.6
2018-Mar-03 18:18S 33°03' E 152°50'1 2.4
2018-Mar-03 18:00S 33°03' E 152°49'1 2.4
2018-Mar-03 17:30S 33°03' E 152°48'2 2.3
2018-Mar-03 16:39S 33°02' E 152°45'1 2.5
2018-Mar-03 16:27S 33°02' E 152°45'1 2.4
2018-Mar-03 16:00S 33°02' E 152°43'1 2.1
2018-Mar-03 15:30S 33°02' E 152°42'1 1.7
2018-Mar-03 14:54S 33°02' E 152°41'1 2.0
2018-Mar-03 14:30S 33°02' E 152°40'1 2.1
2018-Mar-03 13:57S 33°01' E 152°39'2 2.1
2018-Mar-03 12:51S 33°00' E 152°36'1 2.0
2018-Mar-03 12:18S 33°00' E 152°35'1 1.9
2018-Mar-03 12:00S 32°60' E 152°34'1 1.9
2018-Mar-03 11:30S 32°59' E 152°33'1 1.8
2018-Mar-03 11:00S 32°59' E 152°33'1 1.8
2018-Mar-03 10:30S 32°58' E 152°32'1 1.7
2018-Mar-03 10:00S 32°58' E 152°31'1 1.6
2018-Mar-03 09:30S 32°57' E 152°30'1 1.4
2018-Mar-03 09:00S 32°57' E 152°29'1 1.4
2018-Mar-03 08:30S 32°57' E 152°29'1 1.3
2018-Mar-03 08:00S 32°56' E 152°28'1 1.3
2018-Mar-03 07:27S 32°55' E 152°28'1 1.1
2018-Mar-03 07:00S 32°55' E 152°27'1 1.3
2018-Mar-03 06:30S 32°54' E 152°27'1 1.1
2018-Mar-03 06:00S 32°54' E 152°27'0 0.9
2018-Mar-03 05:30S 32°53' E 152°27'0 0.8
2018-Mar-03 04:57S 32°53' E 152°27'0 0.4
2018-Mar-03 04:24S 32°53' E 152°27'0 0.4
2018-Mar-03 04:00S 32°53' E 152°27'0 0.2
2018-Mar-03 03:30S 32°53' E 152°27'1 1.3
2018-Mar-03 03:00S 32°52' E 152°27'5 9.4
2018-Mar-03 02:30S 32°53' E 152°21'611.5
2018-Mar-03 02:00S 32°55' E 152°15'611.3
2018-Mar-03 01:30S 32°57' E 152°08'611.0
2018-Mar-03 01:00S 32°59' E 152°02'2 3.4
2018-Mar-03 00:31S 32°58' E 152°00'612.8
2018-Mar-03 00:00S 32°57' E 152°08'612.3
2018-Mar-02 23:29S 32°56' E 152°15'612.1
2018-Mar-02 23:00S 32°54' E 152°22'611.9
2018-Mar-02 22:31S 32°51' E 152°28'611.5
2018-Mar-02 21:57S 32°49' E 152°35'511.4
2018-Mar-02 21:30S 32°47' E 152°40'510.5
2018-Mar-02 20:59S 32°43' E 152°45'611.7
2018-Mar-02 20:29S 32°38' E 152°49'  

Dump ship's entire track history